createdAt,value
2019-04-21T00:00:17.034Z,40.47
2019-04-21T00:03:09.954Z,40.51
2019-04-21T00:06:20.052Z,40.34
2019-04-21T00:11:55.724Z,39.86
2019-04-21T00:14:35.878Z,40.22
2019-04-21T00:17:18.199Z,40.16
2019-04-21T00:20:16.364Z,40.41
2019-04-21T00:23:13.155Z,40.99
2019-04-21T00:25:59.650Z,40.83
2019-04-21T00:29:06.313Z,40.77
2019-04-21T00:31:41.958Z,40.83
2019-04-21T00:34:17.918Z,41.16
2019-04-21T00:37:17.990Z,41.10
2019-04-21T00:40:21.132Z,41.11
2019-04-21T00:43:03.693Z,41.26
2019-04-21T00:45:50.867Z,41.25
2019-04-21T00:48:47.576Z,41.51
2019-04-21T00:51:54.306Z,41.59
2019-04-21T00:54:41.755Z,40.94
2019-04-21T00:57:31.143Z,40.88
2019-04-21T01:00:19.828Z,41.26
2019-04-21T01:03:04.643Z,41.49
2019-04-21T01:06:11.509Z,41.38
2019-04-21T01:08:42.195Z,41.16
2019-04-21T01:11:33.264Z,41.43
2019-04-21T01:14:29.885Z,41.39
2019-04-21T01:17:19.283Z,41.53
2019-04-21T01:20:00.003Z,41.99
2019-04-21T01:22:33.258Z,41.78
2019-04-21T01:25:30.251Z,42.25
2019-04-21T01:28:28.939Z,42.38
2019-04-21T01:31:17.095Z,42.69
2019-04-21T01:34:15.416Z,42.83
2019-04-21T01:37:00.005Z,43.32
2019-04-21T01:39:58.469Z,44.13
2019-04-21T01:42:48.175Z,44.37
2019-04-21T01:45:32.156Z,44.55
2019-04-21T01:48:21.784Z,44.66
2019-04-21T01:51:11.523Z,44.74
2019-04-21T01:54:09.250Z,45.56
2019-04-21T01:57:04.341Z,45.55
2019-04-21T01:59:46.922Z,45.25
2019-04-21T02:02:56.071Z,45.05
2019-04-21T02:05:49.529Z,45.01
2019-04-21T02:08:27.486Z,45.29
2019-04-21T02:11:18.866Z,45.44
2019-04-21T02:14:11.317Z,45.44
2019-04-21T02:17:01.399Z,45.61
2019-04-21T02:19:41.240Z,45.51
2019-04-21T02:22:58.006Z,45.65
2019-04-21T02:25:36.960Z,45.74
2019-04-21T02:28:29.656Z,45.91
2019-04-21T02:39:56.729Z,46.26
2019-04-21T02:42:45.876Z,46.46
2019-04-21T02:45:34.639Z,46.49
2019-04-21T02:48:26.046Z,46.57
2019-04-21T02:51:10.369Z,46.80
2019-04-21T02:54:32.240Z,46.55
2019-04-21T02:56:52.927Z,46.69
2019-04-21T03:00:28.967Z,46.72
2019-04-21T03:03:13.337Z,46.79
2019-04-21T03:06:24.992Z,47.12
2019-04-21T03:09:18.264Z,47.21
2019-04-21T03:17:46.187Z,47.59
2019-04-21T03:20:33.698Z,47.96
2019-04-21T03:23:27.604Z,47.68
2019-04-21T03:29:05.689Z,47.61
2019-04-21T03:37:33.454Z,48.17
2019-04-21T03:40:18.786Z,47.86
2019-04-21T03:43:14.489Z,47.60
2019-04-21T03:45:58.495Z,47.78
2019-04-21T03:48:51.375Z,47.93
2019-04-21T03:51:48.335Z,48.19
2019-04-21T03:54:37.187Z,47.71
2019-04-21T03:57:42.209Z,47.83
2019-04-21T04:00:21.884Z,47.51
2019-04-21T04:03:35.044Z,47.53
2019-04-21T04:06:19.620Z,47.74
2019-04-21T04:09:34.299Z,48.03
2019-04-21T04:12:02.397Z,48.37
2019-04-21T04:14:55.426Z,47.54
2019-04-21T04:17:40.714Z,47.80
2019-04-21T04:20:36.388Z,48.08
2019-04-21T04:23:35.303Z,48.15
2019-04-21T04:31:47.420Z,48.32
2019-04-21T04:35:05.748Z,48.25
2019-04-21T04:40:51.694Z,48.33
2019-04-21T04:43:30.489Z,48.45
2019-04-21T04:46:20.363Z,47.82
2019-04-21T04:49:11.110Z,48.27
2019-04-21T04:57:49.136Z,47.57
2019-04-21T05:00:34.905Z,47.59
2019-04-21T05:03:24.294Z,47.33
2019-04-21T05:14:56.330Z,46.36
2019-04-21T05:17:49.008Z,46.77
2019-04-21T05:20:24.940Z,46.31
2019-04-21T05:23:19.611Z,46.27
2019-04-21T05:26:00.188Z,46.93
2019-04-21T05:28:48.660Z,46.45
2019-04-21T05:31:57.003Z,46.15
2019-04-21T05:34:50.358Z,46.03
2019-04-21T05:38:03.067Z,47.59
2019-04-21T05:40:45.786Z,46.73
2019-04-21T05:43:39.078Z,46.72
2019-04-21T05:46:35.576Z,47.75
2019-04-21T05:49:26.458Z,46.59
2019-04-21T05:52:19.139Z,46.94
2019-04-21T05:55:11.094Z,47.01
2019-04-21T05:57:59.887Z,47.27
2019-04-21T06:04:07.588Z,47.45
2019-04-21T06:06:43.955Z,47.34
2019-04-21T06:09:35.154Z,47.51
2019-04-21T06:12:23.563Z,46.89
2019-04-21T06:15:15.321Z,47.01
2019-04-21T06:18:04.386Z,46.42
2019-04-21T06:20:54.275Z,46.40
2019-04-21T06:23:43.563Z,45.18
2019-04-21T06:26:50.450Z,44.99
2019-04-21T06:29:24.070Z,45.84
2019-04-21T06:35:28.781Z,43.97
2019-04-21T06:38:26.555Z,43.94
2019-04-21T06:41:04.801Z,43.85
2019-04-21T06:46:39.326Z,43.50
2019-04-21T06:49:35.713Z,43.37
2019-04-21T06:55:15.527Z,42.51
2019-04-21T06:58:08.349Z,41.51
2019-04-21T07:00:55.915Z,40.67
2019-04-21T07:03:50.675Z,41.16
2019-04-21T07:06:46.959Z,40.63
2019-04-21T07:09:49.950Z,40.35
2019-04-21T07:12:18.680Z,40.63
2019-04-21T07:15:09.957Z,40.47
2019-04-21T07:17:59.439Z,39.68
2019-04-21T07:20:49.147Z,39.37
2019-04-21T07:23:45.827Z,39.94
2019-04-21T07:26:31.136Z,39.82
2019-04-21T07:29:32.121Z,39.97
2019-04-21T07:32:15.240Z,39.13
2019-04-21T07:35:06.535Z,38.62
2019-04-21T07:37:55.171Z,38.39
2019-04-21T07:40:38.947Z,38.58
2019-04-21T07:43:25.856Z,37.66
2019-04-21T07:46:16.835Z,38.19
2019-04-21T07:49:44.613Z,37.92
2019-04-21T07:53:01.000Z,37.13
2019-04-21T07:58:43.787Z,36.08
2019-04-21T08:01:24.463Z,37.01
2019-04-21T08:04:33.511Z,35.39
2019-04-21T08:07:02.771Z,35.43
2019-04-21T08:09:55.351Z,35.76
2019-04-21T08:12:36.394Z,35.20
2019-04-21T08:15:52.822Z,35.41
2019-04-21T08:18:28.686Z,34.74
2019-04-21T08:21:19.623Z,34.65
2019-04-21T08:24:00.279Z,34.21
2019-04-21T08:26:58.674Z,34.57
2019-04-21T08:29:47.767Z,34.15
2019-04-21T08:32:49.919Z,33.72
2019-04-21T08:38:13.882Z,34.62
2019-04-21T08:41:08.667Z,33.79
2019-04-21T08:44:04.940Z,33.26
2019-04-21T08:46:49.147Z,32.24
2019-04-21T08:49:37.951Z,32.24
2019-04-21T08:55:25.316Z,31.96
2019-04-21T08:58:47.483Z,32.21
2019-04-21T09:04:29.080Z,30.08
2019-04-21T09:07:25.635Z,32.11
2019-04-21T09:10:09.297Z,29.62
2019-04-21T09:13:03.177Z,30.76
2019-04-21T09:15:49.690Z,30.76
2019-04-21T09:18:32.516Z,30.32
2019-04-21T09:21:31.367Z,30.47
2019-04-21T09:24:16.653Z,29.26
2019-04-21T09:27:07.104Z,29.96
2019-04-21T09:29:44.835Z,30.50
2019-04-21T09:32:31.439Z,29.39
2019-04-21T09:35:19.132Z,29.01
2019-04-21T09:38:21.153Z,29.55
2019-04-21T09:40:59.640Z,28.99
2019-04-21T09:43:52.205Z,29.33
2019-04-21T09:46:46.931Z,27.85
2019-04-21T09:49:33.165Z,26.83
2019-04-21T09:52:25.158Z,26.28
2019-04-21T09:55:16.001Z,26.92
2019-04-21T09:58:12.352Z,23.81
2019-04-21T10:01:02.522Z,24.36
2019-04-21T10:03:48.266Z,24.05
2019-04-21T10:06:33.008Z,23.01
2019-04-21T10:09:21.883Z,22.57
2019-04-21T10:12:11.887Z,22.40
2019-04-21T10:15:01.909Z,22.20
2019-04-21T10:17:56.384Z,22.28
2019-04-21T10:20:46.687Z,22.38
2019-04-21T10:23:35.882Z,21.77
2019-04-21T10:26:24.604Z,21.28
2019-04-21T10:29:21.772Z,21.15
2019-04-21T10:32:03.671Z,21.23
2019-04-21T10:34:52.835Z,21.59
2019-04-21T10:37:57.621Z,21.07
2019-04-21T10:40:35.245Z,22.39
2019-04-21T10:43:23.975Z,21.85
2019-04-21T10:46:12.929Z,21.62
2019-04-21T10:49:01.855Z,21.48
2019-04-21T10:51:50.855Z,21.12
2019-04-21T10:55:05.574Z,21.65
2019-04-21T10:57:32.566Z,20.85
2019-04-21T11:00:21.766Z,20.11
2019-04-21T11:03:31.120Z,20.67
2019-04-21T11:06:20.994Z,20.64
2019-04-21T11:09:10.935Z,20.34
2019-04-21T11:11:59.920Z,20.76
2019-04-21T11:14:49.453Z,20.83
2019-04-21T11:17:40.667Z,21.34
2019-04-21T11:20:28.823Z,20.20
2019-04-21T11:23:19.572Z,20.61
2019-04-21T11:26:07.428Z,20.59
2019-04-21T11:28:56.822Z,20.71
2019-04-21T11:31:47.212Z,20.46
2019-04-21T11:34:36.819Z,20.32
2019-04-21T11:37:28.558Z,19.83
2019-04-21T11:40:19.805Z,19.65
2019-04-21T11:43:07.309Z,19.79
2019-04-21T11:45:56.035Z,19.96
2019-04-21T11:48:44.440Z,19.34
2019-04-21T11:51:33.345Z,19.70
2019-04-21T11:54:22.598Z,19.22
2019-04-21T11:57:19.487Z,19.22
2019-04-21T12:00:01.920Z,17.77
2019-04-21T12:02:51.414Z,18.41
2019-04-21T12:05:41.358Z,18.62
2019-04-21T12:08:38.208Z,18.86
2019-04-21T12:11:21.038Z,19.27
2019-04-21T12:14:09.997Z,18.71
2019-04-21T12:16:59.329Z,19.39
2019-04-21T12:19:48.537Z,18.50
2019-04-21T12:22:37.459Z,18.72
2019-04-21T12:25:27.550Z,18.63
2019-04-21T12:28:17.369Z,17.62
2019-04-21T12:31:19.313Z,19.16
2019-04-21T12:34:09.953Z,17.94
2019-04-21T12:36:59.135Z,18.02
2019-04-21T12:39:50.571Z,18.26
2019-04-21T12:42:40.454Z,18.21
2019-04-21T12:45:29.333Z,17.68
2019-04-21T12:48:18.141Z,17.26
2019-04-21T12:51:07.862Z,17.34
2019-04-21T12:53:57.431Z,17.82
2019-04-21T12:56:47.632Z,17.85
2019-04-21T12:59:37.789Z,17.59
2019-04-21T13:02:27.444Z,18.25
2019-04-21T13:05:17.722Z,17.84
2019-04-21T13:08:07.202Z,18.27
2019-04-21T13:10:56.312Z,17.42
2019-04-21T13:13:45.970Z,18.71
2019-04-21T13:16:34.439Z,17.94
2019-04-21T13:19:23.322Z,17.37
2019-04-21T13:22:12.411Z,17.44
2019-04-21T13:25:02.273Z,17.62
2019-04-21T13:27:52.378Z,16.57
2019-04-21T13:30:42.305Z,17.22
2019-04-21T13:33:31.301Z,17.63
2019-04-21T13:36:21.357Z,16.50
2019-04-21T13:40:07.645Z,16.76
2019-04-21T13:42:40.228Z,16.82
2019-04-21T13:45:23.983Z,16.24
2019-04-21T13:48:12.745Z,16.84
2019-04-21T13:51:01.827Z,16.74
2019-04-21T13:53:51.429Z,16.89
2019-04-21T13:56:40.712Z,16.08
2019-04-21T13:59:28.956Z,15.88
2019-04-21T14:02:20.616Z,16.76
2019-04-21T14:05:11.854Z,17.09
2019-04-21T14:08:01.007Z,16.64
2019-04-21T14:10:51.519Z,16.34
2019-04-21T14:13:40.610Z,16.42
2019-04-21T14:16:29.873Z,16.12
2019-04-21T14:19:19.360Z,16.37
2019-04-21T14:22:11.509Z,16.06
2019-04-21T14:24:59.768Z,15.86
2019-04-21T14:27:50.687Z,15.08
2019-04-21T14:30:40.745Z,15.52
2019-04-21T14:33:29.863Z,15.20
2019-04-21T14:36:19.243Z,13.98
2019-04-21T14:39:12.402Z,14.02
2019-04-21T14:42:02.269Z,14.21
2019-04-21T14:44:51.218Z,13.84
2019-04-21T14:48:00.953Z,14.29
2019-04-21T14:50:58.061Z,13.50
2019-04-21T14:54:00.020Z,12.67
2019-04-21T14:56:49.351Z,12.06
2019-04-21T14:59:39.166Z,11.90
2019-04-21T15:02:29.782Z,11.96
2019-04-21T15:05:19.758Z,11.56
2019-04-21T15:08:09.107Z,11.40
2019-04-21T15:10:58.883Z,11.29
2019-04-21T15:13:50.035Z,11.83
2019-04-21T15:16:40.788Z,10.76
2019-04-21T15:19:30.838Z,10.72
2019-04-21T15:22:20.733Z,10.51
2019-04-21T15:25:10.292Z,10.43
2019-04-21T15:27:59.142Z,10.55
2019-04-21T15:30:48.058Z,10.60
2019-04-21T15:33:37.012Z,9.76
2019-04-21T15:36:27.227Z,10.66
2019-04-21T15:39:16.269Z,10.18
2019-04-21T15:42:08.326Z,9.83
2019-04-21T15:44:57.119Z,9.76
2019-04-21T15:47:46.205Z,9.60
2019-04-21T15:50:35.903Z,9.52
2019-04-21T15:53:25.651Z,9.21
2019-04-21T15:56:22.719Z,9.78
2019-04-21T15:59:16.632Z,9.90
2019-04-21T16:02:24.572Z,9.50
2019-04-21T16:05:15.007Z,9.45
2019-04-21T16:08:05.823Z,9.42
2019-04-21T16:10:58.523Z,9.81
2019-04-21T16:13:45.836Z,9.37
2019-04-21T16:16:36.175Z,10.43
2019-04-21T16:19:24.969Z,10.53
2019-04-21T16:22:14.751Z,10.99
2019-04-21T16:25:03.449Z,11.83
2019-04-21T16:27:53.270Z,12.39
2019-04-21T16:30:42.525Z,12.76
2019-04-21T16:33:31.593Z,12.96
2019-04-21T16:36:20.179Z,13.33
2019-04-21T16:39:09.571Z,13.26
2019-04-21T16:42:00.420Z,13.58
2019-04-21T16:44:49.197Z,14.46
2019-04-21T16:47:38.082Z,14.31
2019-04-21T16:50:27.965Z,14.41
2019-04-21T16:53:24.047Z,14.22
2019-04-21T16:56:20.626Z,14.61
2019-04-21T16:59:39.979Z,15.21
2019-04-21T17:02:28.568Z,15.09
2019-04-21T17:05:18.297Z,14.84
2019-04-21T17:08:08.108Z,15.29
2019-04-21T17:11:08.284Z,15.30
2019-04-21T17:13:47.501Z,15.19
2019-04-21T17:16:58.406Z,15.75
2019-04-21T17:19:29.825Z,15.93
2019-04-21T17:22:17.594Z,15.64
2019-04-21T17:25:08.584Z,16.19
2019-04-21T17:27:58.742Z,16.43
2019-04-21T17:30:48.540Z,16.14
2019-04-21T17:33:37.142Z,16.27
2019-04-21T17:36:27.282Z,16.44
2019-04-21T17:39:16.496Z,16.60
2019-04-21T17:42:19.299Z,16.68
2019-04-21T17:44:55.525Z,16.76
2019-04-21T17:47:50.731Z,16.69
2019-04-21T17:50:57.000Z,17.38
2019-04-21T17:54:13.644Z,17.15
2019-04-21T17:57:21.736Z,17.71
2019-04-21T18:00:13.945Z,17.67
2019-04-21T18:03:02.092Z,17.61
2019-04-21T18:05:47.506Z,18.16
2019-04-21T18:08:44.899Z,17.94
2019-04-21T18:11:22.446Z,18.88
2019-04-21T18:14:00.051Z,18.55
2019-04-21T18:16:51.629Z,19.26
2019-04-21T18:19:43.213Z,19.17
2019-04-21T18:22:51.087Z,19.52
2019-04-21T18:25:47.179Z,19.82
2019-04-21T18:28:30.478Z,20.46
2019-04-21T18:31:20.857Z,20.70
2019-04-21T18:34:32.043Z,20.39
2019-04-21T18:37:47.787Z,20.59
2019-04-21T18:40:36.547Z,20.87
2019-04-21T18:44:04.085Z,21.33
2019-04-21T18:46:52.457Z,21.58
2019-04-21T18:50:01.695Z,22.30
2019-04-21T18:53:04.827Z,22.57
2019-04-21T18:55:48.197Z,22.30
2019-04-21T18:58:36.128Z,22.78
2019-04-21T19:01:28.207Z,22.76
2019-04-21T19:04:20.519Z,22.96
2019-04-21T19:07:22.759Z,23.33
2019-04-21T19:16:17.053Z,24.56
2019-04-21T19:18:50.670Z,24.49
2019-04-21T19:21:27.992Z,25.12
2019-04-21T19:24:29.237Z,24.10
2019-04-21T19:27:19.203Z,24.66
2019-04-21T19:30:12.131Z,24.83
2019-04-21T19:33:01.071Z,24.97
2019-04-21T19:35:29.678Z,24.80
2019-04-21T19:38:30.572Z,24.76
2019-04-21T19:41:25.415Z,25.07
2019-04-21T19:44:19.305Z,25.02
2019-04-21T19:47:10.775Z,24.87
2019-04-21T19:50:03.209Z,25.73
2019-04-21T19:52:41.088Z,25.55
2019-04-21T19:55:20.585Z,26.08
2019-04-21T19:58:10.719Z,26.21
2019-04-21T20:01:01.505Z,26.47
2019-04-21T20:03:55.515Z,26.70
2019-04-21T20:06:54.929Z,26.81
2019-04-21T20:09:47.878Z,27.12
2019-04-21T20:12:39.935Z,27.04
2019-04-21T20:15:37.107Z,27.39
2019-04-21T20:18:15.302Z,27.32
2019-04-21T20:20:52.288Z,27.42
2019-04-21T20:23:42.778Z,27.69
2019-04-21T20:26:37.879Z,27.31
2019-04-21T20:29:38.897Z,26.78
2019-04-21T20:32:42.994Z,26.81
2019-04-21T20:35:26.593Z,27.17
2019-04-21T20:38:06.226Z,27.33
2019-04-21T20:40:52.635Z,27.82
2019-04-21T20:43:47.406Z,28.61
2019-04-21T20:46:40.264Z,28.83
2019-04-21T20:49:23.147Z,28.83
2019-04-21T20:52:22.636Z,29.14
2019-04-21T20:55:07.242Z,29.24
2019-04-21T20:57:53.864Z,29.75
2019-04-21T21:01:04.248Z,29.75
2019-04-21T21:03:40.192Z,30.27
2019-04-21T21:06:26.118Z,30.27
2019-04-21T21:09:18.214Z,29.40
2019-04-21T21:12:22.253Z,29.13
2019-04-21T21:14:57.731Z,29.13
2019-04-21T21:18:01.513Z,28.98
2019-04-21T21:20:43.014Z,28.98
2019-04-21T21:23:38.764Z,29.45
2019-04-21T21:26:25.722Z,29.46
2019-04-21T21:29:06.839Z,29.47
2019-04-21T21:32:09.845Z,30.87
2019-04-21T21:34:56.885Z,30.87
2019-04-21T21:37:49.569Z,30.96
2019-04-21T21:40:34.067Z,31.71
2019-04-21T21:43:14.330Z,31.88
2019-04-21T21:46:01.560Z,32.12
2019-04-21T21:49:03.114Z,32.37
2019-04-21T21:51:56.786Z,32.37
2019-04-21T21:54:33.909Z,32.28
2019-04-21T21:57:23.104Z,32.43
2019-04-21T22:00:15.451Z,32.15
2019-04-21T22:03:11.948Z,31.98
2019-04-21T22:05:59.788Z,32.40
2019-04-21T22:08:42.906Z,32.80
2019-04-21T22:11:31.861Z,32.57
2019-04-21T22:14:25.949Z,31.74
2019-04-21T22:17:31.695Z,31.96
2019-04-21T22:20:22.810Z,32.27
2019-04-21T22:22:59.397Z,32.56
2019-04-21T22:25:45.792Z,32.91
2019-04-21T22:28:35.952Z,32.87
2019-04-21T22:31:30.075Z,32.72
2019-04-21T22:34:16.652Z,33.00
2019-04-21T22:37:24.808Z,33.71
2019-04-21T22:40:08.358Z,33.68
2019-04-21T22:42:56.652Z,33.21
2019-04-21T22:45:35.660Z,33.03
2019-04-21T22:48:28.258Z,32.59
2019-04-21T22:51:23.783Z,34.07
2019-04-21T22:54:06.156Z,33.63
2019-04-21T22:57:04.173Z,34.50
2019-04-21T22:59:53.913Z,34.23
2019-04-21T23:02:38.619Z,34.65
2019-04-21T23:05:30.213Z,34.57
2019-04-21T23:08:17.179Z,34.55
2019-04-21T23:11:10.000Z,34.99
2019-04-21T23:14:04.038Z,35.58
2019-04-21T23:16:50.656Z,35.19
2019-04-21T23:19:53.780Z,35.96
2019-04-21T23:22:51.446Z,35.54
2019-04-21T23:25:39.244Z,35.80
2019-04-21T23:28:22.340Z,36.31
2019-04-21T23:31:21.443Z,36.38
2019-04-21T23:33:50.454Z,36.86
2019-04-21T23:36:48.301Z,37.16
2019-04-21T23:39:32.843Z,37.34
2019-04-21T23:42:28.589Z,37.39
2019-04-21T23:45:10.969Z,37.59
2019-04-21T23:48:17.347Z,38.18
2019-04-21T23:51:03.385Z,38.32
2019-04-21T23:53:41.890Z,38.26
2019-04-21T23:56:36.818Z,38.63
2019-04-21T23:59:22.467Z,38.36
